Montrose, Colorado
Current Conditions -  °F | °C
As of 12:18 PM on Sunday 21 Dec 2014 (Local Time) from KMTJ Reporting Station
Overcast Overcast  
Wind Chill:   Ceiling: 700
Heat Index:   Visibility: 8mi
Dew Point: -2°   Wind: 3mph
Humidity: 85%   Direction: 350°N
Pressure: 29.99"   Gusts: NA
Location:  38.48°N, 107.87°W
Report Text: KMTJ 211918Z AUTO 35003KT 8SM BKN007 BKN030 OVC049 01/M02 A2999 RMK AO2 SNE12 P0000 T00061017
Loading
Personal Weather Stations






























Interactive Weather Map New forecast layout! Learn more

10-Day Weather Forecast

Advertisements
Track Severe Weather on mobile